sensor_id;sensor_type;location;lat;lon;timestamp;temperature;humidity
54082;DHT22;39986;50.770;0.266;2023-08-31T00:01:39;14.70;99.90
54082;DHT22;39986;50.770;0.266;2023-08-31T00:04:04;14.80;99.90
54082;DHT22;39986;50.770;0.266;2023-08-31T00:06:31;14.70;99.90
54082;DHT22;39986;50.770;0.266;2023-08-31T00:08:56;14.60;99.90
54082;DHT22;39986;50.770;0.266;2023-08-31T00:11:23;14.60;99.90
54082;DHT22;39986;50.770;0.266;2023-08-31T00:13:48;14.60;99.90
54082;DHT22;39986;50.770;0.266;2023-08-31T00:16:14;14.60;99.90
54082;DHT22;39986;50.770;0.266;2023-08-31T00:18:40;14.70;99.90
54082;DHT22;39986;50.770;0.266;2023-08-31T00:21:05;14.60;99.90
54082;DHT22;39986;50.770;0.266;2023-08-31T00:23:31;14.70;99.90
54082;DHT22;39986;50.770;0.266;2023-08-31T00:25:56;14.60;99.90
54082;DHT22;39986;50.770;0.266;2023-08-31T00:28:22;14.60;99.90
54082;DHT22;39986;50.770;0.266;2023-08-31T00:30:48;14.60;99.90
54082;DHT22;39986;50.770;0.266;2023-08-31T00:33:14;14.60;99.90
54082;DHT22;39986;50.770;0.266;2023-08-31T00:35:40;14.60;99.90
54082;DHT22;39986;50.770;0.266;2023-08-31T00:38:11;14.60;99.90
54082;DHT22;39986;50.770;0.266;2023-08-31T00:40:40;14.50;99.90
54082;DHT22;39986;50.770;0.266;2023-08-31T00:43:07;14.50;99.90
54082;DHT22;39986;50.770;0.266;2023-08-31T00:45:33;14.60;99.90
54082;DHT22;39986;50.770;0.266;2023-08-31T00:48:00;14.50;99.90
54082;DHT22;39986;50.770;0.266;2023-08-31T00:50:25;14.50;99.90
54082;DHT22;39986;50.770;0.266;2023-08-31T00:52:51;14.50;99.90
54082;DHT22;39986;50.770;0.266;2023-08-31T00:55:17;14.50;99.90
54082;DHT22;39986;50.770;0.266;2023-08-31T00:57:43;14.60;99.90
54082;DHT22;39986;50.770;0.266;2023-08-31T01:00:09;14.50;99.90
54082;DHT22;39986;50.770;0.266;2023-08-31T01:02:58;14.60;99.90
54082;DHT22;39986;50.770;0.266;2023-08-31T01:05:46;14.60;99.90
54082;DHT22;39986;50.770;0.266;2023-08-31T01:10:57;14.70;99.90
54082;DHT22;39986;50.770;0.266;2023-08-31T01:13:24;14.70;99.90
54082;DHT22;39986;50.770;0.266;2023-08-31T01:15:51;14.70;99.90
54082;DHT22;39986;50.770;0.266;2023-08-31T01:18:18;14.80;99.90
54082;DHT22;39986;50.770;0.266;2023-08-31T01:20:55;14.80;99.90
54082;DHT22;39986;50.770;0.266;2023-08-31T01:23:25;14.70;99.90
54082;DHT22;39986;50.770;0.266;2023-08-31T01:25:54;14.80;99.90
54082;DHT22;39986;50.770;0.266;2023-08-31T01:28:20;14.70;99.90
54082;DHT22;39986;50.770;0.266;2023-08-31T01:30:45;14.70;99.90
54082;DHT22;39986;50.770;0.266;2023-08-31T01:33:11;14.80;99.90
54082;DHT22;39986;50.770;0.266;2023-08-31T01:35:42;14.80;99.90
54082;DHT22;39986;50.770;0.266;2023-08-31T01:38:08;14.80;99.90
54082;DHT22;39986;50.770;0.266;2023-08-31T01:43:07;14.70;99.90
54082;DHT22;39986;50.770;0.266;2023-08-31T01:45:33;14.70;99.90
54082;DHT22;39986;50.770;0.266;2023-08-31T01:47:59;14.80;99.90
54082;DHT22;39986;50.770;0.266;2023-08-31T01:50:25;14.80;99.90
54082;DHT22;39986;50.770;0.266;2023-08-31T01:52:51;14.70;99.90
54082;DHT22;39986;50.770;0.266;2023-08-31T01:55:18;14.70;99.90
54082;DHT22;39986;50.770;0.266;2023-08-31T01:57:44;14.80;99.90
54082;DHT22;39986;50.770;0.266;2023-08-31T02:00:10;14.80;99.90
54082;DHT22;39986;50.770;0.266;2023-08-31T02:02:35;14.80;99.90
54082;DHT22;39986;50.770;0.266;2023-08-31T02:05:01;14.80;99.90
54082;DHT22;39986;50.770;0.266;2023-08-31T02:07:27;14.80;99.90
54082;DHT22;39986;50.770;0.266;2023-08-31T02:09:52;14.70;99.90
54082;DHT22;39986;50.770;0.266;2023-08-31T02:12:18;14.80;99.90
54082;DHT22;39986;50.770;0.266;2023-08-31T02:14:43;14.70;99.90
54082;DHT22;39986;50.770;0.266;2023-08-31T02:17:09;14.70;99.90
54082;DHT22;39986;50.770;0.266;2023-08-31T02:19:34;14.70;99.90
54082;DHT22;39986;50.770;0.266;2023-08-31T02:22:00;14.80;99.90
54082;DHT22;39986;50.770;0.266;2023-08-31T02:24:25;14.70;99.90
54082;DHT22;39986;50.770;0.266;2023-08-31T02:26:51;14.70;99.90
54082;DHT22;39986;50.770;0.266;2023-08-31T02:29:17;14.80;99.90
54082;DHT22;39986;50.770;0.266;2023-08-31T02:31:42;14.90;99.90
54082;DHT22;39986;50.770;0.266;2023-08-31T02:34:08;14.90;99.90
54082;DHT22;39986;50.770;0.266;2023-08-31T02:36:33;14.90;99.90
54082;DHT22;39986;50.770;0.266;2023-08-31T02:38:59;14.90;99.90
54082;DHT22;39986;50.770;0.266;2023-08-31T02:41:24;15.00;99.90
54082;DHT22;39986;50.770;0.266;2023-08-31T02:43:50;14.90;99.90
54082;DHT22;39986;50.770;0.266;2023-08-31T02:46:16;14.90;99.90
54082;DHT22;39986;50.770;0.266;2023-08-31T02:48:41;14.80;99.90
54082;DHT22;39986;50.770;0.266;2023-08-31T02:51:07;14.70;99.90
54082;DHT22;39986;50.770;0.266;2023-08-31T02:53:32;14.70;99.90
54082;DHT22;39986;50.770;0.266;2023-08-31T02:55:58;14.80;99.90
54082;DHT22;39986;50.770;0.266;2023-08-31T02:58:23;14.70;99.90
54082;DHT22;39986;50.770;0.266;2023-08-31T03:00:50;14.70;99.90
54082;DHT22;39986;50.770;0.266;2023-08-31T03:03:15;14.70;99.90
54082;DHT22;39986;50.770;0.266;2023-08-31T03:05:41;14.70;99.90
54082;DHT22;39986;50.770;0.266;2023-08-31T03:08:07;14.60;99.90
54082;DHT22;39986;50.770;0.266;2023-08-31T03:10:32;14.70;99.90
54082;DHT22;39986;50.770;0.266;2023-08-31T03:12:58;14.70;99.90
54082;DHT22;39986;50.770;0.266;2023-08-31T03:15:23;14.70;99.90
54082;DHT22;39986;50.770;0.266;2023-08-31T03:17:49;14.60;99.90
54082;DHT22;39986;50.770;0.266;2023-08-31T03:20:14;14.60;99.90
54082;DHT22;39986;50.770;0.266;2023-08-31T03:22:40;14.60;99.90
54082;DHT22;39986;50.770;0.266;2023-08-31T03:25:06;14.60;99.90
54082;DHT22;39986;50.770;0.266;2023-08-31T03:27:31;14.60;99.90
54082;DHT22;39986;50.770;0.266;2023-08-31T03:29:57;14.50;99.90
54082;DHT22;39986;50.770;0.266;2023-08-31T03:32:23;14.70;99.90
54082;DHT22;39986;50.770;0.266;2023-08-31T03:34:48;14.70;99.90
54082;DHT22;39986;50.770;0.266;2023-08-31T03:37:14;14.70;99.90
54082;DHT22;39986;50.770;0.266;2023-08-31T03:39:39;14.70;99.90
54082;DHT22;39986;50.770;0.266;2023-08-31T03:42:06;14.60;99.90
54082;DHT22;39986;50.770;0.266;2023-08-31T03:44:32;14.70;99.90
54082;DHT22;39986;50.770;0.266;2023-08-31T03:46:57;14.60;99.90
54082;DHT22;39986;50.770;0.266;2023-08-31T03:49:23;14.60;99.90
54082;DHT22;39986;50.770;0.266;2023-08-31T03:51:49;14.70;99.90
54082;DHT22;39986;50.770;0.266;2023-08-31T03:54:14;14.60;99.90
54082;DHT22;39986;50.770;0.266;2023-08-31T03:56:40;14.60;99.90
54082;DHT22;39986;50.770;0.266;2023-08-31T03:59:05;14.70;99.90
54082;DHT22;39986;50.770;0.266;2023-08-31T04:01:31;14.70;99.90
54082;DHT22;39986;50.770;0.266;2023-08-31T04:03:57;14.70;99.90
54082;DHT22;39986;50.770;0.266;2023-08-31T04:06:22;14.70;99.90
54082;DHT22;39986;50.770;0.266;2023-08-31T04:08:48;14.70;99.90
54082;DHT22;39986;50.770;0.266;2023-08-31T04:11:13;14.80;99.90
54082;DHT22;39986;50.770;0.266;2023-08-31T04:13:39;14.70;99.90
54082;DHT22;39986;50.770;0.266;2023-08-31T04:16:04;14.80;99.90
54082;DHT22;39986;50.770;0.266;2023-08-31T04:18:30;14.70;99.90
54082;DHT22;39986;50.770;0.266;2023-08-31T04:20:55;14.80;99.90
54082;DHT22;39986;50.770;0.266;2023-08-31T04:23:24;14.70;99.90
54082;DHT22;39986;50.770;0.266;2023-08-31T04:25:49;14.80;99.90
54082;DHT22;39986;50.770;0.266;2023-08-31T04:28:16;14.70;99.90
54082;DHT22;39986;50.770;0.266;2023-08-31T04:30:42;14.80;99.90
54082;DHT22;39986;50.770;0.266;2023-08-31T04:33:08;14.70;99.90
54082;DHT22;39986;50.770;0.266;2023-08-31T04:35:34;14.80;99.90
54082;DHT22;39986;50.770;0.266;2023-08-31T04:37:59;14.80;99.90
54082;DHT22;39986;50.770;0.266;2023-08-31T04:40:25;14.80;99.90
54082;DHT22;39986;50.770;0.266;2023-08-31T04:42:52;14.80;99.90
54082;DHT22;39986;50.770;0.266;2023-08-31T04:45:17;14.70;99.90
54082;DHT22;39986;50.770;0.266;2023-08-31T04:47:43;14.70;99.90
54082;DHT22;39986;50.770;0.266;2023-08-31T04:50:09;14.60;99.90
54082;DHT22;39986;50.770;0.266;2023-08-31T04:52:34;14.80;99.90
54082;DHT22;39986;50.770;0.266;2023-08-31T04:55:00;14.80;99.90
54082;DHT22;39986;50.770;0.266;2023-08-31T04:57:27;14.70;99.90
54082;DHT22;39986;50.770;0.266;2023-08-31T04:59:53;14.80;99.90
54082;DHT22;39986;50.770;0.266;2023-08-31T05:02:19;14.80;99.90
54082;DHT22;39986;50.770;0.266;2023-08-31T05:04:44;14.80;99.90
54082;DHT22;39986;50.770;0.266;2023-08-31T05:07:10;14.70;99.90
54082;DHT22;39986;50.770;0.266;2023-08-31T05:09:35;14.60;99.90
54082;DHT22;39986;50.770;0.266;2023-08-31T05:12:01;14.60;99.90
54082;DHT22;39986;50.770;0.266;2023-08-31T05:14:28;14.70;99.90
54082;DHT22;39986;50.770;0.266;2023-08-31T05:16:54;14.60;99.90
54082;DHT22;39986;50.770;0.266;2023-08-31T05:19:19;14.70;99.90
54082;DHT22;39986;50.770;0.266;2023-08-31T05:21:45;14.70;99.90
54082;DHT22;39986;50.770;0.266;2023-08-31T05:24:10;14.70;99.90
54082;DHT22;39986;50.770;0.266;2023-08-31T05:26:36;14.90;99.90
54082;DHT22;39986;50.770;0.266;2023-08-31T05:29:01;14.80;99.90
54082;DHT22;39986;50.770;0.266;2023-08-31T05:31:29;14.80;99.90
54082;DHT22;39986;50.770;0.266;2023-08-31T05:33:55;14.80;99.90
54082;DHT22;39986;50.770;0.266;2023-08-31T05:36:20;14.80;99.90
54082;DHT22;39986;50.770;0.266;2023-08-31T05:38:46;14.80;99.90
54082;DHT22;39986;50.770;0.266;2023-08-31T05:41:11;14.80;99.90
54082;DHT22;39986;50.770;0.266;2023-08-31T05:43:37;14.80;99.90
54082;DHT22;39986;50.770;0.266;2023-08-31T05:46:05;14.80;99.90
54082;DHT22;39986;50.770;0.266;2023-08-31T05:48:31;14.90;99.90
54082;DHT22;39986;50.770;0.266;2023-08-31T05:50:56;14.90;99.90
54082;DHT22;39986;50.770;0.266;2023-08-31T05:53:22;14.90;99.90
54082;DHT22;39986;50.770;0.266;2023-08-31T05:55:48;14.90;99.90
54082;DHT22;39986;50.770;0.266;2023-08-31T05:58:14;15.00;99.90
54082;DHT22;39986;50.770;0.266;2023-08-31T06:00:39;15.00;99.90
54082;DHT22;39986;50.770;0.266;2023-08-31T06:03:05;15.10;99.90
54082;DHT22;39986;50.770;0.266;2023-08-31T06:05:33;15.20;99.90
54082;DHT22;39986;50.770;0.266;2023-08-31T06:07:58;15.20;99.90
54082;DHT22;39986;50.770;0.266;2023-08-31T06:10:24;15.30;99.90
54082;DHT22;39986;50.770;0.266;2023-08-31T06:12:49;15.40;99.90
54082;DHT22;39986;50.770;0.266;2023-08-31T06:15:18;15.50;99.90
54082;DHT22;39986;50.770;0.266;2023-08-31T06:17:44;15.50;99.90
54082;DHT22;39986;50.770;0.266;2023-08-31T06:20:10;15.60;99.90
54082;DHT22;39986;50.770;0.266;2023-08-31T06:22:35;15.70;99.90
54082;DHT22;39986;50.770;0.266;2023-08-31T06:25:01;15.70;99.90
54082;DHT22;39986;50.770;0.266;2023-08-31T06:27:26;15.80;99.90
54082;DHT22;39986;50.770;0.266;2023-08-31T06:29:52;15.90;99.90
54082;DHT22;39986;50.770;0.266;2023-08-31T06:32:17;15.90;99.90
54082;DHT22;39986;50.770;0.266;2023-08-31T06:34:44;16.00;99.90
54082;DHT22;39986;50.770;0.266;2023-08-31T06:37:09;16.10;99.90
54082;DHT22;39986;50.770;0.266;2023-08-31T06:39:35;16.10;99.90
54082;DHT22;39986;50.770;0.266;2023-08-31T06:42:01;16.10;99.90
54082;DHT22;39986;50.770;0.266;2023-08-31T06:44:27;16.10;99.90
54082;DHT22;39986;50.770;0.266;2023-08-31T06:46:54;16.10;99.90
54082;DHT22;39986;50.770;0.266;2023-08-31T06:49:21;16.20;99.90
54082;DHT22;39986;50.770;0.266;2023-08-31T06:51:47;16.10;99.90
54082;DHT22;39986;50.770;0.266;2023-08-31T06:54:12;16.30;99.90
54082;DHT22;39986;50.770;0.266;2023-08-31T06:56:38;16.30;99.90
54082;DHT22;39986;50.770;0.266;2023-08-31T06:59:03;16.30;99.90
54082;DHT22;39986;50.770;0.266;2023-08-31T07:01:29;16.50;99.90
54082;DHT22;39986;50.770;0.266;2023-08-31T07:03:55;16.60;99.90
54082;DHT22;39986;50.770;0.266;2023-08-31T07:06:20;16.60;99.90
54082;DHT22;39986;50.770;0.266;2023-08-31T07:08:46;16.80;99.90
54082;DHT22;39986;50.770;0.266;2023-08-31T07:11:13;16.80;99.90
54082;DHT22;39986;50.770;0.266;2023-08-31T07:13:39;17.00;99.90
54082;DHT22;39986;50.770;0.266;2023-08-31T07:16:05;17.10;99.90
54082;DHT22;39986;50.770;0.266;2023-08-31T07:18:30;17.20;99.90
54082;DHT22;39986;50.770;0.266;2023-08-31T07:20:56;17.30;99.90
54082;DHT22;39986;50.770;0.266;2023-08-31T07:23:22;17.30;99.90
54082;DHT22;39986;50.770;0.266;2023-08-31T07:25:47;17.40;99.90
54082;DHT22;39986;50.770;0.266;2023-08-31T07:28:13;17.40;99.90
54082;DHT22;39986;50.770;0.266;2023-08-31T07:30:38;17.40;99.90
54082;DHT22;39986;50.770;0.266;2023-08-31T07:33:05;17.40;99.90
54082;DHT22;39986;50.770;0.266;2023-08-31T07:35:30;17.40;99.90
54082;DHT22;39986;50.770;0.266;2023-08-31T07:37:56;17.40;99.90
54082;DHT22;39986;50.770;0.266;2023-08-31T07:40:21;17.30;99.90
54082;DHT22;39986;50.770;0.266;2023-08-31T07:42:47;17.30;99.90
54082;DHT22;39986;50.770;0.266;2023-08-31T07:45:12;17.40;99.90
54082;DHT22;39986;50.770;0.266;2023-08-31T07:47:38;17.50;99.90
54082;DHT22;39986;50.770;0.266;2023-08-31T07:50:03;17.60;99.90
54082;DHT22;39986;50.770;0.266;2023-08-31T07:52:29;17.70;99.90
54082;DHT22;39986;50.770;0.266;2023-08-31T07:54:55;17.80;99.90
54082;DHT22;39986;50.770;0.266;2023-08-31T07:57:20;18.00;99.90
54082;DHT22;39986;50.770;0.266;2023-08-31T07:59:46;18.20;99.90
54082;DHT22;39986;50.770;0.266;2023-08-31T08:02:11;18.10;99.90
54082;DHT22;39986;50.770;0.266;2023-08-31T08:04:37;18.20;99.90
54082;DHT22;39986;50.770;0.266;2023-08-31T08:07:02;18.30;99.90
54082;DHT22;39986;50.770;0.266;2023-08-31T08:09:29;18.30;99.90
54082;DHT22;39986;50.770;0.266;2023-08-31T08:11:55;18.40;99.90
54082;DHT22;39986;50.770;0.266;2023-08-31T08:14:21;18.30;99.90
54082;DHT22;39986;50.770;0.266;2023-08-31T08:16:46;18.50;99.90
54082;DHT22;39986;50.770;0.266;2023-08-31T08:19:12;18.70;99.90
54082;DHT22;39986;50.770;0.266;2023-08-31T08:21:38;18.90;99.90
54082;DHT22;39986;50.770;0.266;2023-08-31T08:24:03;19.30;99.90
54082;DHT22;39986;50.770;0.266;2023-08-31T08:26:29;19.40;99.90
54082;DHT22;39986;50.770;0.266;2023-08-31T08:28:54;19.40;99.90
54082;DHT22;39986;50.770;0.266;2023-08-31T08:31:20;19.30;99.90
54082;DHT22;39986;50.770;0.266;2023-08-31T08:33:45;19.10;99.90
54082;DHT22;39986;50.770;0.266;2023-08-31T08:36:11;19.10;99.90
54082;DHT22;39986;50.770;0.266;2023-08-31T08:38:36;19.00;99.90
54082;DHT22;39986;50.770;0.266;2023-08-31T08:41:05;19.20;99.90
54082;DHT22;39986;50.770;0.266;2023-08-31T08:43:31;19.50;99.90
54082;DHT22;39986;50.770;0.266;2023-08-31T08:45:58;19.70;99.90
54082;DHT22;39986;50.770;0.266;2023-08-31T08:48:25;19.90;99.90
54082;DHT22;39986;50.770;0.266;2023-08-31T08:50:51;19.90;99.90
54082;DHT22;39986;50.770;0.266;2023-08-31T08:53:17;20.10;99.90
54082;DHT22;39986;50.770;0.266;2023-08-31T08:55:42;20.20;99.90
54082;DHT22;39986;50.770;0.266;2023-08-31T08:58:08;20.20;99.90
54082;DHT22;39986;50.770;0.266;2023-08-31T09:00:33;20.10;99.90
54082;DHT22;39986;50.770;0.266;2023-08-31T09:02:59;20.10;99.90
54082;DHT22;39986;50.770;0.266;2023-08-31T09:05:26;20.00;99.90
54082;DHT22;39986;50.770;0.266;2023-08-31T09:08:01;19.60;99.90
54082;DHT22;39986;50.770;0.266;2023-08-31T09:10:36;19.30;99.90
54082;DHT22;39986;50.770;0.266;2023-08-31T09:13:04;19.10;99.90
54082;DHT22;39986;50.770;0.266;2023-08-31T09:15:36;18.80;99.90
54082;DHT22;39986;50.770;0.266;2023-08-31T09:18:04;18.50;99.90
54082;DHT22;39986;50.770;0.266;2023-08-31T09:20:29;18.00;99.90
54082;DHT22;39986;50.770;0.266;2023-08-31T09:22:55;17.60;99.90
54082;DHT22;39986;50.770;0.266;2023-08-31T09:25:21;17.20;99.90
54082;DHT22;39986;50.770;0.266;2023-08-31T09:27:46;16.80;99.90
54082;DHT22;39986;50.770;0.266;2023-08-31T09:30:13;16.50;99.90
54082;DHT22;39986;50.770;0.266;2023-08-31T09:32:39;16.30;99.90
54082;DHT22;39986;50.770;0.266;2023-08-31T09:35:10;16.00;99.90
54082;DHT22;39986;50.770;0.266;2023-08-31T09:37:36;15.90;99.90
54082;DHT22;39986;50.770;0.266;2023-08-31T09:40:02;15.80;99.90
54082;DHT22;39986;50.770;0.266;2023-08-31T09:42:37;15.70;99.90
54082;DHT22;39986;50.770;0.266;2023-08-31T09:45:03;15.80;99.90
54082;DHT22;39986;50.770;0.266;2023-08-31T09:47:29;15.90;99.90
54082;DHT22;39986;50.770;0.266;2023-08-31T09:49:55;16.00;99.90
54082;DHT22;39986;50.770;0.266;2023-08-31T09:52:21;16.00;99.90
54082;DHT22;39986;50.770;0.266;2023-08-31T09:54:47;16.10;99.90
54082;DHT22;39986;50.770;0.266;2023-08-31T09:57:14;16.00;99.90
54082;DHT22;39986;50.770;0.266;2023-08-31T09:59:40;16.00;99.90
54082;DHT22;39986;50.770;0.266;2023-08-31T10:02:05;16.00;99.90
54082;DHT22;39986;50.770;0.266;2023-08-31T10:04:32;16.10;99.90
54082;DHT22;39986;50.770;0.266;2023-08-31T10:06:58;16.10;99.90
54082;DHT22;39986;50.770;0.266;2023-08-31T10:09:24;16.10;99.90
54082;DHT22;39986;50.770;0.266;2023-08-31T10:11:49;16.10;99.90
54082;DHT22;39986;50.770;0.266;2023-08-31T10:14:15;16.10;99.90
54082;DHT22;39986;50.770;0.266;2023-08-31T10:16:42;16.00;99.90
54082;DHT22;39986;50.770;0.266;2023-08-31T10:19:09;16.00;99.90
54082;DHT22;39986;50.770;0.266;2023-08-31T10:21:34;16.00;99.90
54082;DHT22;39986;50.770;0.266;2023-08-31T10:24:00;16.00;99.90
54082;DHT22;39986;50.770;0.266;2023-08-31T10:26:27;16.00;99.90
54082;DHT22;39986;50.770;0.266;2023-08-31T10:28:53;16.00;99.90
54082;DHT22;39986;50.770;0.266;2023-08-31T10:31:19;15.90;99.90
54082;DHT22;39986;50.770;0.266;2023-08-31T10:33:46;16.10;99.90
54082;DHT22;39986;50.770;0.266;2023-08-31T10:38:41;16.00;99.90
54082;DHT22;39986;50.770;0.266;2023-08-31T10:46:15;16.20;99.90
54082;DHT22;39986;50.770;0.266;2023-08-31T10:48:50;16.00;99.90
54082;DHT22;39986;50.770;0.266;2023-08-31T10:51:16;16.00;99.90
54082;DHT22;39986;50.770;0.266;2023-08-31T10:53:45;16.00;99.90
54082;DHT22;39986;50.770;0.266;2023-08-31T10:56:11;16.10;99.90
54082;DHT22;39986;50.770;0.266;2023-08-31T10:58:36;16.00;99.90
54082;DHT22;39986;50.770;0.266;2023-08-31T11:01:02;16.00;99.90
54082;DHT22;39986;50.770;0.266;2023-08-31T11:03:29;16.00;99.90
54082;DHT22;39986;50.770;0.266;2023-08-31T11:05:55;15.90;99.90
54082;DHT22;39986;50.770;0.266;2023-08-31T11:08:24;15.70;99.90
54082;DHT22;39986;50.770;0.266;2023-08-31T11:10:50;15.50;99.90
54082;DHT22;39986;50.770;0.266;2023-08-31T11:13:18;15.50;99.90
54082;DHT22;39986;50.770;0.266;2023-08-31T11:15:46;15.40;99.90
54082;DHT22;39986;50.770;0.266;2023-08-31T11:18:12;15.40;99.90
54082;DHT22;39986;50.770;0.266;2023-08-31T11:20:39;15.30;99.90
54082;DHT22;39986;50.770;0.266;2023-08-31T11:23:05;15.30;99.90
54082;DHT22;39986;50.770;0.266;2023-08-31T11:25:30;15.10;99.90
54082;DHT22;39986;50.770;0.266;2023-08-31T11:27:57;15.10;99.90
54082;DHT22;39986;50.770;0.266;2023-08-31T11:30:24;15.00;99.90
54082;DHT22;39986;50.770;0.266;2023-08-31T11:32:50;14.90;99.90
54082;DHT22;39986;50.770;0.266;2023-08-31T11:35:16;14.70;99.90
54082;DHT22;39986;50.770;0.266;2023-08-31T11:37:43;14.60;99.90
54082;DHT22;39986;50.770;0.266;2023-08-31T11:40:09;14.50;99.90
54082;DHT22;39986;50.770;0.266;2023-08-31T11:42:34;14.50;99.90
54082;DHT22;39986;50.770;0.266;2023-08-31T11:45:00;14.40;99.90
54082;DHT22;39986;50.770;0.266;2023-08-31T11:47:26;14.20;99.90
54082;DHT22;39986;50.770;0.266;2023-08-31T11:49:51;14.10;99.90
54082;DHT22;39986;50.770;0.266;2023-08-31T11:52:17;14.20;99.90
54082;DHT22;39986;50.770;0.266;2023-08-31T11:54:43;14.10;99.90
54082;DHT22;39986;50.770;0.266;2023-08-31T11:57:11;14.20;99.90
54082;DHT22;39986;50.770;0.266;2023-08-31T11:59:38;14.30;99.90
54082;DHT22;39986;50.770;0.266;2023-08-31T12:02:07;14.20;99.90
54082;DHT22;39986;50.770;0.266;2023-08-31T12:04:42;14.30;99.90
54082;DHT22;39986;50.770;0.266;2023-08-31T12:07:09;14.40;99.90
54082;DHT22;39986;50.770;0.266;2023-08-31T12:09:35;14.30;99.90
54082;DHT22;39986;50.770;0.266;2023-08-31T12:12:00;14.30;99.90
54082;DHT22;39986;50.770;0.266;2023-08-31T12:14:26;14.30;99.90
54082;DHT22;39986;50.770;0.266;2023-08-31T12:16:52;14.30;99.90
54082;DHT22;39986;50.770;0.266;2023-08-31T12:19:18;14.60;99.90
54082;DHT22;39986;50.770;0.266;2023-08-31T12:21:45;14.60;99.90
54082;DHT22;39986;50.770;0.266;2023-08-31T12:24:11;14.70;99.90
54082;DHT22;39986;50.770;0.266;2023-08-31T12:26:37;14.90;99.90
54082;DHT22;39986;50.770;0.266;2023-08-31T12:29:03;15.20;99.90
54082;DHT22;39986;50.770;0.266;2023-08-31T12:31:32;15.40;99.90
54082;DHT22;39986;50.770;0.266;2023-08-31T12:33:58;15.40;99.90
54082;DHT22;39986;50.770;0.266;2023-08-31T12:36:23;15.50;99.90
54082;DHT22;39986;50.770;0.266;2023-08-31T12:38:49;15.70;99.90
54082;DHT22;39986;50.770;0.266;2023-08-31T12:41:14;15.60;99.90
54082;DHT22;39986;50.770;0.266;2023-08-31T12:43:40;15.60;99.90
54082;DHT22;39986;50.770;0.266;2023-08-31T12:46:05;15.60;99.90
54082;DHT22;39986;50.770;0.266;2023-08-31T12:48:32;15.50;99.90
54082;DHT22;39986;50.770;0.266;2023-08-31T12:50:58;15.50;99.90
54082;DHT22;39986;50.770;0.266;2023-08-31T12:53:23;15.50;99.90
54082;DHT22;39986;50.770;0.266;2023-08-31T12:55:49;15.40;99.90
54082;DHT22;39986;50.770;0.266;2023-08-31T12:58:15;15.40;99.90
54082;DHT22;39986;50.770;0.266;2023-08-31T13:00:41;15.30;99.90
54082;DHT22;39986;50.770;0.266;2023-08-31T13:03:08;15.50;99.90
54082;DHT22;39986;50.770;0.266;2023-08-31T13:05:34;15.40;99.90
54082;DHT22;39986;50.770;0.266;2023-08-31T13:08:00;15.50;99.90
54082;DHT22;39986;50.770;0.266;2023-08-31T13:10:26;15.60;99.90
54082;DHT22;39986;50.770;0.266;2023-08-31T13:12:51;15.50;99.90
54082;DHT22;39986;50.770;0.266;2023-08-31T13:15:17;15.60;99.90
54082;DHT22;39986;50.770;0.266;2023-08-31T13:17:42;15.50;99.90
54082;DHT22;39986;50.770;0.266;2023-08-31T13:20:08;15.50;99.90
54082;DHT22;39986;50.770;0.266;2023-08-31T13:22:33;15.40;99.90
54082;DHT22;39986;50.770;0.266;2023-08-31T13:24:59;15.20;99.90
54082;DHT22;39986;50.770;0.266;2023-08-31T13:27:25;15.30;99.90
54082;DHT22;39986;50.770;0.266;2023-08-31T13:29:50;15.30;99.90
54082;DHT22;39986;50.770;0.266;2023-08-31T13:32:16;15.40;99.90
54082;DHT22;39986;50.770;0.266;2023-08-31T13:34:41;15.40;99.90
54082;DHT22;39986;50.770;0.266;2023-08-31T13:37:07;15.40;99.90
54082;DHT22;39986;50.770;0.266;2023-08-31T13:39:33;15.40;99.90
54082;DHT22;39986;50.770;0.266;2023-08-31T13:41:59;15.40;99.90
54082;DHT22;39986;50.770;0.266;2023-08-31T13:44:27;15.30;99.90
54082;DHT22;39986;50.770;0.266;2023-08-31T13:46:53;15.20;99.90
54082;DHT22;39986;50.770;0.266;2023-08-31T13:49:18;15.20;99.90
54082;DHT22;39986;50.770;0.266;2023-08-31T13:51:44;15.20;99.90
54082;DHT22;39986;50.770;0.266;2023-08-31T13:54:10;15.20;99.90
54082;DHT22;39986;50.770;0.266;2023-08-31T13:56:36;15.20;99.90
54082;DHT22;39986;50.770;0.266;2023-08-31T13:59:02;15.10;99.90
54082;DHT22;39986;50.770;0.266;2023-08-31T14:01:28;15.00;99.90
54082;DHT22;39986;50.770;0.266;2023-08-31T14:03:53;14.90;99.90
54082;DHT22;39986;50.770;0.266;2023-08-31T14:06:19;14.80;99.90
54082;DHT22;39986;50.770;0.266;2023-08-31T14:08:45;14.70;99.90
54082;DHT22;39986;50.770;0.266;2023-08-31T14:11:10;14.60;99.90
54082;DHT22;39986;50.770;0.266;2023-08-31T14:13:36;14.60;99.90
54082;DHT22;39986;50.770;0.266;2023-08-31T14:16:02;14.50;99.90
54082;DHT22;39986;50.770;0.266;2023-08-31T14:18:27;14.40;99.90
54082;DHT22;39986;50.770;0.266;2023-08-31T14:20:57;14.50;99.90
54082;DHT22;39986;50.770;0.266;2023-08-31T14:23:24;14.40;99.90
54082;DHT22;39986;50.770;0.266;2023-08-31T14:25:49;14.50;99.90
54082;DHT22;39986;50.770;0.266;2023-08-31T14:28:15;14.60;99.90
54082;DHT22;39986;50.770;0.266;2023-08-31T14:30:40;14.80;99.90
54082;DHT22;39986;50.770;0.266;2023-08-31T14:33:06;14.80;99.90
54082;DHT22;39986;50.770;0.266;2023-08-31T14:35:32;14.70;99.90
54082;DHT22;39986;50.770;0.266;2023-08-31T14:38:01;14.70;99.90
54082;DHT22;39986;50.770;0.266;2023-08-31T14:40:27;14.70;99.90
54082;DHT22;39986;50.770;0.266;2023-08-31T14:42:52;14.80;99.90
54082;DHT22;39986;50.770;0.266;2023-08-31T14:45:18;14.90;99.90
54082;DHT22;39986;50.770;0.266;2023-08-31T14:47:44;14.80;99.90
54082;DHT22;39986;50.770;0.266;2023-08-31T14:50:09;14.80;99.90
54082;DHT22;39986;50.770;0.266;2023-08-31T14:52:35;14.80;99.90
54082;DHT22;39986;50.770;0.266;2023-08-31T14:55:00;14.80;99.90
54082;DHT22;39986;50.770;0.266;2023-08-31T14:57:26;14.80;99.90
54082;DHT22;39986;50.770;0.266;2023-08-31T14:59:51;14.70;99.90
54082;DHT22;39986;50.770;0.266;2023-08-31T15:02:19;14.80;99.90
54082;DHT22;39986;50.770;0.266;2023-08-31T15:04:47;14.70;99.90
54082;DHT22;39986;50.770;0.266;2023-08-31T15:07:14;14.70;99.90
54082;DHT22;39986;50.770;0.266;2023-08-31T15:09:40;14.60;99.90
54082;DHT22;39986;50.770;0.266;2023-08-31T15:12:06;14.80;99.90
54082;DHT22;39986;50.770;0.266;2023-08-31T15:14:31;14.80;99.90
54082;DHT22;39986;50.770;0.266;2023-08-31T15:16:57;14.70;99.90
54082;DHT22;39986;50.770;0.266;2023-08-31T15:19:22;14.70;99.90
54082;DHT22;39986;50.770;0.266;2023-08-31T15:21:48;14.70;99.90
54082;DHT22;39986;50.770;0.266;2023-08-31T15:24:13;14.70;99.90
54082;DHT22;39986;50.770;0.266;2023-08-31T15:26:39;14.70;99.90
54082;DHT22;39986;50.770;0.266;2023-08-31T15:29:04;14.70;99.90
54082;DHT22;39986;50.770;0.266;2023-08-31T15:31:30;14.70;99.90
54082;DHT22;39986;50.770;0.266;2023-08-31T15:33:55;14.70;99.90
54082;DHT22;39986;50.770;0.266;2023-08-31T15:36:21;14.80;99.90